Time;durP1;ratioP1;P1;durP2;ratioP2;P2;SDS_P1;SDS_P2;PMS_P1;PMS_P2;Temp;Humidity;BMP_temperature;BMP_pressure;BME280_temperature;BME280_humidity;BME280_pressure;Samples;Min_cycle;Max_cycle;Signal;HPM_P1;HPM_P2
2021/12/24 00:05:13;;;;;;;32.78;27.75;;;;;;;;;;12643168;28;20055;-74
2021/12/24 00:11:16;;;;;;;30.50;27.20;;;;;;;;;;12608460;28;20040;-74
2021/12/24 00:17:24;;;;;;;28.40;25.45;;;;;;;;;;12642285;28;20036;-74
2021/12/24 00:35:51;;;;;;;29.77;26.67;;;;;;;;;;12634445;28;20036;-74
2021/12/24 00:41:54;;;;;;;30.95;27.17;;;;;;;;;;12617382;28;20230;-73
2021/12/24 00:47:57;;;;;;;31.50;28.13;;;;;;;;;;12633522;28;20055;-73
2021/12/24 01:00:21;;;;;;;32.83;29.17;;;;;;;;;;12651219;28;20044;-73
2021/12/24 01:06:23;;;;;;;32.70;28.75;;;;;;;;;;12650910;28;20052;-73
2021/12/24 01:12:25;;;;;;;31.98;28.58;;;;;;;;;;12650701;28;20481;-72
2021/12/24 01:24:56;;;;;;;29.77;26.60;;;;;;;;;;12650270;28;20040;-73
2021/12/24 01:43:38;;;;;;;30.95;27.60;;;;;;;;;;12630997;28;20040;-73
2021/12/24 01:49:40;;;;;;;30.60;27.37;;;;;;;;;;12630872;28;20063;-73
2021/12/24 01:55:43;;;;;;;;;;;;;;;;;;12631029;28;20050;-73
2021/12/24 02:01:45;;;;;;;30.08;26.88;;;;;;;;;;12630186;28;19915;-73
2021/12/24 02:07:47;;;;;;;31.93;28.63;;;;;;;;;;12629751;28;20044;-73
2021/12/24 02:13:49;;;;;;;28.67;25.45;;;;;;;;;;12630016;28;20472;-73
2021/12/24 02:32:33;;;;;;;25.23;22.60;;;;;;;;;;12629159;28;20035;-73
2021/12/24 02:38:36;;;;;;;29.58;26.60;;;;;;;;;;12646485;28;20039;-72
2021/12/24 02:44:37;;;;;;;27.73;24.73;;;;;;;;;;12628086;28;20485;-73
2021/12/24 02:57:08;;;;;;;27.73;24.77;;;;;;;;;;12645821;28;20520;-74
2021/12/24 03:03:09;;;;;;;28.67;25.60;;;;;;;;;;12610535;28;20043;-74
2021/12/24 03:09:14;;;;;;;29.08;25.98;;;;;;;;;;12644923;28;20036;-74
2021/12/24 03:15:17;;;;;;;30.20;26.95;;;;;;;;;;12645075;28;20035;-74
2021/12/24 03:21:28;;;;;;;28.15;25.20;;;;;;;;;;12626604;28;20032;-73
2021/12/24 03:27:30;;;;;;;25.00;22.33;;;;;;;;;;12644471;28;20287;-74
2021/12/24 03:33:33;;;;;;;29.47;26.30;;;;;;;;;;12626153;28;20397;-74
2021/12/24 03:39:36;;;;;;;29.92;26.80;;;;;;;;;;12642821;28;20039;-74
2021/12/24 03:52:03;;;;;;;26.85;22.88;;;;;;;;;;12625646;28;20036;-73
2021/12/24 03:58:05;;;;;;;23.17;20.02;;;;;;;;;;12625520;28;20040;-74
2021/12/24 04:04:25;;;;;;;23.42;20.15;;;;;;;;;;12633599;28;20043;-74
2021/12/24 04:10:45;;;;;;;29.80;24.55;;;;;;;;;;12653975;28;20048;-74
2021/12/24 04:16:50;;;;;;;26.05;22.15;;;;;;;;;;12653930;28;20036;-74
2021/12/24 04:29:13;;;;;;;24.42;19.27;;;;;;;;;;12634694;28;20040;-74
2021/12/24 05:06:37;;;;;;;24.20;20.33;;;;;;;;;;12582798;28;20037;-73
2021/12/24 05:12:38;;;;;;;24.60;20.75;;;;;;;;;;12599370;28;20033;-73
2021/12/24 05:25:12;;;;;;;24.38;16.95;;;;;;;;;;12558901;28;19915;-73
2021/12/24 05:31:14;;;;;;;22.40;18.48;;;;;;;;;;12598304;28;20052;-73
2021/12/24 05:37:16;;;;;;;21.55;17.55;;;;;;;;;;12599201;28;20028;-73
2021/12/24 05:43:18;;;;;;;24.75;19.88;;;;;;;;;;12581447;28;20032;-74
2021/12/24 05:49:20;;;;;;;;;;;;;;;;;;12637214;28;20059;-73
2021/12/24 05:55:45;;;;;;;25.27;18.35;;;;;;;;;;12633896;28;19915;-73
2021/12/24 06:01:54;;;;;;;24.70;18.48;;;;;;;;;;12630452;28;20035;-74
2021/12/24 06:07:56;;;;;;;20.35;18.13;;;;;;;;;;12647924;28;20047;-73
2021/12/24 06:13:58;;;;;;;24.20;20.50;;;;;;;;;;12629754;28;20028;-74
2021/12/24 06:20:00;;;;;;;23.23;20.73;;;;;;;;;;12630031;28;20043;-73
2021/12/24 06:26:03;;;;;;;32.83;29.10;;;;;;;;;;12645912;28;20050;-73
2021/12/24 06:32:05;;;;;;;28.27;23.67;;;;;;;;;;12645615;28;20036;-74
2021/12/24 06:38:07;;;;;;;22.27;18.58;;;;;;;;;;12646666;28;20501;-74
2021/12/24 06:44:11;;;;;;;29.95;23.63;;;;;;;;;;12646119;28;20032;-74
2021/12/24 06:50:13;;;;;;;25.60;21.45;;;;;;;;;;12610763;28;20059;-74
2021/12/24 06:56:15;;;;;;;22.58;19.25;;;;;;;;;;12627714;28;20024;-74
2021/12/24 07:02:19;;;;;;;24.10;19.45;;;;;;;;;;12611177;28;20028;-73
2021/12/24 07:08:20;;;;;;;21.67;17.58;;;;;;;;;;12627201;28;20043;-73
2021/12/24 07:14:25;;;;;;;24.10;21.55;;;;;;;;;;12644346;28;20036;-74
2021/12/24 07:20:27;;;;;;;22.63;19.80;;;;;;;;;;12644646;28;20028;-73
2021/12/24 07:26:29;;;;;;;21.65;17.85;;;;;;;;;;12610185;28;20035;-73
2021/12/24 07:32:31;;;;;;;20.02;17.17;;;;;;;;;;12626286;28;20036;-73
2021/12/24 07:38:32;;;;;;;19.00;17.10;;;;;;;;;;12643810;28;20393;-73
2021/12/24 07:44:35;;;;;;;20.77;18.33;;;;;;;;;;12625383;28;20032;-73
2021/12/24 07:56:41;;;;;;;20.02;17.55;;;;;;;;;;12625179;28;20035;-73
2021/12/24 08:02:43;;;;;;;39.53;35.42;;;;;;;;;;12643016;28;20400;-72
2021/12/24 08:08:45;;;;;;;24.87;22.43;;;;;;;;;;12624539;28;20032;-72
2021/12/24 08:14:47;;;;;;;27.30;24.27;;;;;;;;;;12642593;28;20055;-73
2021/12/24 08:20:49;;;;;;;26.07;23.67;;;;;;;;;;12642951;28;20032;-73
2021/12/24 08:26:52;;;;;;;23.70;21.42;;;;;;;;;;12642769;28;20532;-73
2021/12/24 08:32:56;;;;;;;24.27;21.85;;;;;;;;;;12642128;28;20047;-73
2021/12/24 08:38:57;;;;;;;23.15;20.90;;;;;;;;;;12624303;28;20032;-73
2021/12/24 08:44:59;;;;;;;24.27;22.00;;;;;;;;;;12641903;28;20043;-73
2021/12/24 08:51:01;;;;;;;21.65;19.55;;;;;;;;;;12646314;28;20036;-74
2021/12/24 08:57:03;;;;;;;26.55;24.08;;;;;;;;;;12633013;28;20035;-74
2021/12/24 09:03:05;;;;;;;23.17;20.98;;;;;;;;;;12633211;28;20062;-74
2021/12/24 09:09:07;;;;;;;19.05;17.15;;;;;;;;;;12632473;28;20047;-74
2021/12/24 09:15:09;;;;;;;21.13;19.13;;;;;;;;;;12633007;28;20469;-74
2021/12/24 09:21:16;;;;;;;23.03;20.83;;;;;;;;;;12632525;28;20130;-75
2021/12/24 09:27:18;;;;;;;24.60;22.00;;;;;;;;;;12631576;28;20040;-72
2021/12/24 09:33:20;;;;;;;24.15;21.70;;;;;;;;;;12615408;28;20034;-73
2021/12/24 09:39:22;;;;;;;24.52;22.15;;;;;;;;;;12649389;28;20464;-73
2021/12/24 09:45:23;;;;;;;16.85;15.20;;;;;;;;;;12630758;28;20052;-73
2021/12/24 09:51:27;;;;;;;25.90;23.48;;;;;;;;;;12648778;28;20044;-73
2021/12/24 09:57:28;;;;;;;23.83;21.52;;;;;;;;;;12647972;28;20032;-73
2021/12/24 10:03:32;;;;;;;23.42;21.05;;;;;;;;;;12648051;28;20028;-73
2021/12/24 10:09:38;;;;;;;28.52;25.52;;;;;;;;;;12647606;28;20047;-73
2021/12/24 10:15:56;;;;;;;22.70;20.45;;;;;;;;;;12629838;28;20039;-73
2021/12/24 10:22:00;;;;;;;29.88;26.83;;;;;;;;;;12647408;28;20032;-73
2021/12/24 10:28:11;;;;;;;28.08;25.40;;;;;;;;;;12646935;28;20066;-73
2021/12/24 10:34:13;;;;;;;26.65;23.95;;;;;;;;;;12628509;28;20024;-73
2021/12/24 10:40:14;;;;;;;38.70;34.60;;;;;;;;;;12646676;28;20055;-73
2021/12/24 10:46:17;;;;;;;30.42;27.20;;;;;;;;;;12646032;28;20534;-73
2021/12/24 10:58:24;;;;;;;29.47;26.37;;;;;;;;;;12627447;28;20036;-73
2021/12/24 11:04:35;;;;;;;19.38;17.38;;;;;;;;;;12645302;28;20297;-73
2021/12/24 11:10:39;;;;;;;28.67;25.83;;;;;;;;;;12627056;28;20043;-73
2021/12/24 11:16:45;;;;;;;30.80;27.80;;;;;;;;;;12644657;28;20326;-73
2021/12/24 11:22:50;;;;;;;28.30;25.42;;;;;;;;;;12644930;28;20036;-74
2021/12/24 11:28:52;;;;;;;24.95;22.42;;;;;;;;;;12645570;28;20036;-75
2021/12/24 11:34:54;;;;;;;23.42;21.10;;;;;;;;;;12626366;28;20035;-74
2021/12/24 11:40:57;;;;;;;30.77;27.42;;;;;;;;;;12625861;28;20496;-74
2021/12/24 11:46:58;;;;;;;;;;;;;;;;;;12644061;28;20386;-72
2021/12/24 11:53:02;;;;;;;25.50;22.80;;;;;;;;;;12625787;28;20368;-73
2021/12/24 11:59:03;;;;;;;29.88;26.00;;;;;;;;;;12643508;28;20036;-73
2021/12/24 12:05:16;;;;;;;34.47;30.88;;;;;;;;;;12644130;28;20032;-74
2021/12/24 12:11:26;;;;;;;30.70;27.50;;;;;;;;;;12625030;28;20044;-74
2021/12/24 12:17:28;;;;;;;23.80;21.30;;;;;;;;;;12643430;28;20496;-74
2021/12/24 12:23:50;;;;;;;25.63;22.58;;;;;;;;;;12627573;28;20035;-73
2021/12/24 12:29:52;;;;;;;28.50;23.00;;;;;;;;;;12634456;28;20489;-73
2021/12/24 12:35:56;;;;;;;21.30;19.00;;;;;;;;;;12634568;28;20031;-73
2021/12/24 12:41:58;;;;;;;24.58;22.08;;;;;;;;;;12634647;28;20028;-74
2021/12/24 12:48:02;;;;;;;21.65;19.38;;;;;;;;;;12651905;28;20047;-73
2021/12/24 12:54:23;;;;;;;22.38;19.25;;;;;;;;;;12651369;28;20033;-74
2021/12/24 13:00:27;;;;;;;20.77;18.15;;;;;;;;;;12651225;28;20416;-74
2021/12/24 13:06:41;;;;;;;22.85;20.40;;;;;;;;;;12650688;28;20051;-74
2021/12/24 13:12:44;;;;;;;21.52;19.38;;;;;;;;;;12650398;28;20051;-74
2021/12/24 13:18:53;;;;;;;19.75;17.75;;;;;;;;;;12651234;28;20024;-73
2021/12/24 13:25:14;;;;;;;27.23;24.52;;;;;;;;;;12632022;28;20036;-73
2021/12/24 13:31:15;;;;;;;23.00;20.60;;;;;;;;;;12615275;28;20050;-74
2021/12/24 13:37:17;;;;;;;20.88;18.80;;;;;;;;;;12630253;28;20028;-73
2021/12/24 13:43:20;;;;;;;22.05;18.95;;;;;;;;;;12631378;28;20035;-74
2021/12/24 13:49:38;;;;;;;24.25;21.85;;;;;;;;;;12631090;28;20052;-74
2021/12/24 13:55:41;;;;;;;27.83;24.83;;;;;;;;;;12630819;28;20032;-74
2021/12/24 14:01:43;;;;;;;25.45;22.88;;;;;;;;;;12648529;28;20028;-74
2021/12/24 14:07:47;;;;;;;23.50;21.13;;;;;;;;;;12648145;28;20055;-74
2021/12/24 14:13:57;;;;;;;23.48;21.00;;;;;;;;;;12629859;28;20035;-74
2021/12/24 14:26:01;;;;;;;23.08;20.83;;;;;;;;;;12647514;28;20043;-74
2021/12/24 14:32:26;;;;;;;22.50;20.20;;;;;;;;;;12628856;28;20500;-74
2021/12/24 14:38:28;;;;;;;20.50;18.40;;;;;;;;;;12620597;28;20050;-74
2021/12/24 14:44:30;;;;;;;23.33;21.02;;;;;;;;;;12646272;28;20051;-74
2021/12/24 14:50:33;;;;;;;20.65;18.55;;;;;;;;;;12627353;28;20048;-74
2021/12/24 14:56:38;;;;;;;22.02;19.17;;;;;;;;;;12611100;28;20191;-74
2021/12/24 15:02:40;;;;;;;22.67;20.27;;;;;;;;;;12627397;28;20028;-73
2021/12/24 15:08:43;;;;;;;23.58;21.05;;;;;;;;;;12645175;28;20047;-74
2021/12/24 15:14:47;;;;;;;21.50;19.40;;;;;;;;;;12627264;28;20032;-74
2021/12/24 15:20:48;;;;;;;20.65;18.48;;;;;;;;;;12626844;28;20036;-74
2021/12/24 15:26:50;;;;;;;19.27;17.30;;;;;;;;;;12644524;28;20365;-74
2021/12/24 15:32:52;;;;;;;20.45;18.38;;;;;;;;;;12644032;28;20044;-74
2021/12/24 15:38:54;;;;;;;21.08;18.98;;;;;;;;;;12625979;28;20043;-74
2021/12/24 15:44:56;;;;;;;23.87;21.13;;;;;;;;;;12643648;28;20024;-73
2021/12/24 15:50:59;;;;;;;27.60;24.75;;;;;;;;;;12643708;28;20401;-74
2021/12/24 15:57:01;;;;;;;26.65;23.85;;;;;;;;;;12608875;28;20036;-74
2021/12/24 16:03:03;;;;;;;23.23;20.85;;;;;;;;;;12608747;28;20035;-73
2021/12/24 16:09:05;;;;;;;22.53;20.33;;;;;;;;;;12608556;28;20408;-73
2021/12/24 16:15:08;;;;;;;21.45;19.25;;;;;;;;;;12643238;28;20040;-73
2021/12/24 16:21:09;;;;;;;25.45;22.83;;;;;;;;;;12625062;28;20044;-74
2021/12/24 16:27:11;;;;;;;23.42;21.13;;;;;;;;;;12643160;28;20035;-74
2021/12/24 16:33:13;;;;;;;29.48;26.33;;;;;;;;;;12642883;28;20508;-74
2021/12/24 16:39:15;;;;;;;25.38;22.73;;;;;;;;;;12642796;28;20040;-74
2021/12/24 16:45:16;;;;;;;25.13;22.42;;;;;;;;;;12642263;28;20079;-74
2021/12/24 16:51:18;;;;;;;22.52;20.33;;;;;;;;;;12642102;28;20044;-74
2021/12/24 16:57:20;;;;;;;21.25;19.08;;;;;;;;;;12624375;28;20040;-74
2021/12/24 17:03:22;;;;;;;24.00;21.52;;;;;;;;;;12624163;28;20416;-74
2021/12/24 17:09:25;;;;;;;23.38;20.85;;;;;;;;;;12641991;28;20503;-74
2021/12/24 17:15:27;;;;;;;24.10;21.60;;;;;;;;;;12650754;28;20032;-74
2021/12/24 17:21:29;;;;;;;26.52;23.75;;;;;;;;;;12650536;28;20040;-74
2021/12/24 17:27:31;;;;;;;29.75;26.17;;;;;;;;;;12650254;28;20461;-74
2021/12/24 17:33:32;;;;;;;29.83;26.63;;;;;;;;;;12631988;28;20039;-74
2021/12/24 17:39:34;;;;;;;31.70;28.38;;;;;;;;;;12631789;28;20039;-74
2021/12/24 17:45:36;;;;;;;29.70;26.70;;;;;;;;;;12631467;28;20056;-74
2021/12/24 17:51:38;;;;;;;28.50;25.50;;;;;;;;;;12631053;28;20517;-74
2021/12/24 17:57:40;;;;;;;28.20;25.20;;;;;;;;;;12630587;28;20393;-74
2021/12/24 18:03:42;;;;;;;25.77;23.17;;;;;;;;;;12648640;28;20024;-74
2021/12/24 18:13:57;;;;;;;24.20;21.63;;;;;;;;;;12587085;28;20481;-73
2021/12/24 18:19:58;;;;;;;28.27;25.33;;;;;;;;;;12586711;28;20029;-73
2021/12/24 18:26:01;;;;;;;29.17;26.13;;;;;;;;;;12587159;28;20037;-73
2021/12/24 18:32:03;;;;;;;25.77;22.67;;;;;;;;;;12584768;28;20063;-73
2021/12/24 18:38:14;;;;;;;28.17;24.23;;;;;;;;;;12585944;28;20040;-73
2021/12/24 18:44:15;;;;;;;29.10;25.95;;;;;;;;;;12584982;28;20033;-73
2021/12/24 18:50:19;;;;;;;25.30;22.70;;;;;;;;;;12583794;28;20055;-73
2021/12/24 18:56:21;;;;;;;27.23;24.23;;;;;;;;;;12583688;28;20044;-73
2021/12/24 19:02:24;;;;;;;26.85;23.95;;;;;;;;;;12584790;28;20029;-73
2021/12/24 19:08:25;;;;;;;24.75;22.15;;;;;;;;;;12583991;28;20060;-73
2021/12/24 19:14:27;;;;;;;29.13;25.27;;;;;;;;;;12583676;28;20048;-73
2021/12/24 19:20:29;;;;;;;28.13;25.25;;;;;;;;;;12577351;28;20040;-73
2021/12/24 19:26:30;;;;;;;32.58;29.08;;;;;;;;;;12552000;28;20060;-73
2021/12/24 19:32:34;;;;;;;28.38;25.20;;;;;;;;;;12550385;28;20045;-73
2021/12/24 19:38:37;;;;;;;31.50;28.15;;;;;;;;;;12548949;28;20037;-73
2021/12/24 19:44:39;;;;;;;;;;;;;;;;;;12550335;28;20037;-73
2021/12/24 19:50:41;;;;;;;33.38;28.48;;;;;;;;;;12548189;28;19916;-73
2021/12/24 19:56:43;;;;;;;29.63;26.43;;;;;;;;;;12548105;28;20037;-73
2021/12/24 20:02:45;;;;;;;29.10;26.17;;;;;;;;;;12547797;28;20075;-73
2021/12/24 20:08:47;;;;;;;23.30;20.73;;;;;;;;;;12547363;28;20060;-73
2021/12/24 20:14:48;;;;;;;28.08;25.15;;;;;;;;;;12548420;28;20029;-73
2021/12/24 20:20:50;;;;;;;33.47;29.15;;;;;;;;;;12548484;28;20501;-73
2021/12/24 20:26:56;;;;;;;29.60;25.73;;;;;;;;;;12530495;28;20041;-73
2021/12/24 20:32:57;;;;;;;30.15;26.98;;;;;;;;;;12546449;28;20052;-72
2021/12/24 20:38:59;;;;;;;30.90;27.65;;;;;;;;;;12547855;28;20060;-73
2021/12/24 20:45:01;;;;;;;29.95;26.75;;;;;;;;;;12547089;28;20032;-73
2021/12/24 20:51:04;;;;;;;30.35;26.92;;;;;;;;;;12547503;28;20485;-73
2021/12/24 20:57:06;;;;;;;28.65;25.52;;;;;;;;;;12546253;28;20516;-73
2021/12/24 21:03:09;;;;;;;37.00;33.07;;;;;;;;;;12545862;28;20033;-73
2021/12/24 21:09:11;;;;;;;33.83;30.10;;;;;;;;;;12527864;28;20409;-73
2021/12/24 21:15:13;;;;;;;31.38;28.02;;;;;;;;;;12544088;28;20040;-72
2021/12/24 21:21:16;;;;;;;30.30;27.10;;;;;;;;;;12544122;28;20040;-73
2021/12/24 21:27:18;;;;;;;31.45;27.00;;;;;;;;;;12545066;28;20469;-74
2021/12/24 21:33:20;;;;;;;31.30;27.93;;;;;;;;;;12543770;28;20051;-74
2021/12/24 21:39:22;;;;;;;30.48;26.52;;;;;;;;;;12543333;28;20037;-74
2021/12/24 21:45:25;;;;;;;38.13;33.28;;;;;;;;;;12543357;28;20041;-74
2021/12/24 21:51:28;;;;;;;35.25;31.55;;;;;;;;;;12543116;28;20041;-74
2021/12/24 21:57:29;;;;;;;32.90;29.57;;;;;;;;;;12542981;28;20037;-73
2021/12/24 22:09:33;;;;;;;37.28;32.58;;;;;;;;;;12542640;28;20053;-73
2021/12/24 22:15:36;;;;;;;29.13;26.03;;;;;;;;;;12543713;28;20044;-72
2021/12/24 22:21:59;;;;;;;30.48;26.70;;;;;;;;;;12543665;28;20029;-72
2021/12/24 22:28:01;;;;;;;33.38;29.80;;;;;;;;;;12542172;28;20052;-72
2021/12/24 22:34:02;;;;;;;30.98;27.27;;;;;;;;;;12543823;28;20045;-73
2021/12/24 22:40:05;;;;;;;37.42;33.47;;;;;;;;;;12542891;28;20041;-73
2021/12/24 22:46:08;;;;;;;36.20;31.27;;;;;;;;;;12543038;28;20485;-73
2021/12/24 22:52:12;;;;;;;36.38;32.45;;;;;;;;;;12543837;28;20044;-73
2021/12/24 22:58:15;;;;;;;33.85;29.42;;;;;;;;;;12546840;28;20040;-73
2021/12/24 23:04:18;;;;;;;38.00;33.20;;;;;;;;;;12552007;28;20433;-72
2021/12/24 23:10:20;;;;;;;33.58;28.95;;;;;;;;;;12551210;28;20044;-73
2021/12/24 23:16:25;;;;;;;33.55;28.70;;;;;;;;;;12551483;28;20029;-73
2021/12/24 23:22:27;;;;;;;36.35;32.20;;;;;;;;;;12533538;28;20037;-73
2021/12/24 23:28:28;;;;;;;33.97;30.33;;;;;;;;;;12549563;28;20049;-72
2021/12/24 23:34:30;;;;;;;33.08;29.33;;;;;;;;;;12549316;28;20033;-73
2021/12/24 23:40:32;;;;;;;32.28;28.75;;;;;;;;;;12549191;28;20036;-73
2021/12/24 23:52:40;;;;;;;32.33;28.88;;;;;;;;;;12549510;28;20052;-72
2021/12/24 23:58:47;;;;;;;32.47;29.00;;;;;;;;;;12549837;28;20044;-72
